Capitol Logistics 103


PANC
Ted Stevens Anchorage International Airport
Anchorage, Alaska, US
KHSV
Huntsville International Airport
Huntsville, Alabama, US

Route Details

Aircraft Information
Primary: Boeing 747-400BCF
Backup: Boeing 777-200LRF
Route Data
Distance: 2850nm
Sched. Duration: 6h 00m
Avg. Duration: 6h 26m (+26m)
Times Flown: 11
Recm'd Route: TED YESKA NCA13 YXY J515 YYE J537 YPE J601 XD YWV J475 VLN J483 MOT ABR Q19 DSM J45 IRK FAM J151 VUZ
Planned Altitude: 33,000ft
Origin Wx: PANC 021353Z 00000KT 10SM FEW250 11/08 A3019 RMK AO2 SLP223 T01060078 $
Dest. Wx: KHSV 021412Z 00000KT 10SM OVC010 24/21 A2999 RMK AO2 T02440211
Notes:

Financial History
Total Freight: 1,363,328lbs
Average Load: 123,939lbs/flt
Fuel Used: 1,009,863lbs
Avg. Fuel Used: 91,806lbs/flt
Fuel Expense: $1,256,298
Avg. Fuel Expense: $114,209
Avg. Fuel Cost: $1.24/lbs
Total Gross Income: $2,803,219
Pilot Pay: $2,269
Total Expenses: $303,320
Total Revenue: $1,227,087
Average Revenue: $254,838.07